sensor_id;sensor_type;location;lat;lon;timestamp;pressure;altitude;pressure_sealevel;temperature;humidity
3434;BME280;1730;41.932;25.548;2023-07-13T00:01:43;99346.16;;;25.03;100.00
3434;BME280;1730;41.932;25.548;2023-07-13T00:04:08;99369.75;;;24.71;100.00
3434;BME280;1730;41.932;25.548;2023-07-13T00:06:34;99391.97;;;24.64;100.00
3434;BME280;1730;41.932;25.548;2023-07-13T00:09:00;99397.38;;;24.59;100.00
3434;BME280;1730;41.932;25.548;2023-07-13T00:11:27;99410.81;;;24.44;100.00
3434;BME280;1730;41.932;25.548;2023-07-13T00:13:53;99429.16;;;24.50;100.00
3434;BME280;1730;41.932;25.548;2023-07-13T00:16:19;99428.94;;;24.52;100.00
3434;BME280;1730;41.932;25.548;2023-07-13T00:18:45;99440.59;;;24.31;100.00
3434;BME280;1730;41.932;25.548;2023-07-13T00:21:12;99456.66;;;24.22;100.00
3434;BME280;1730;41.932;25.548;2023-07-13T00:23:39;99454.72;;;24.34;100.00
3434;BME280;1730;41.932;25.548;2023-07-13T00:26:07;99452.44;;;24.31;100.00
3434;BME280;1730;41.932;25.548;2023-07-13T00:28:33;99454.47;;;24.36;100.00
3434;BME280;1730;41.932;25.548;2023-07-13T00:30:59;99455.44;;;24.30;100.00
3434;BME280;1730;41.932;25.548;2023-07-13T00:33:25;99448.03;;;24.30;100.00
3434;BME280;1730;41.932;25.548;2023-07-13T00:35:50;99446.47;;;24.34;100.00
3434;BME280;1730;41.932;25.548;2023-07-13T00:38:16;99443.31;;;24.42;100.00
3434;BME280;1730;41.932;25.548;2023-07-13T00:40:42;99424.75;;;24.38;100.00
3434;BME280;1730;41.932;25.548;2023-07-13T00:43:16;99399.78;;;24.09;100.00
3434;BME280;1730;41.932;25.548;2023-07-13T00:48:08;99439.56;;;24.13;100.00
3434;BME280;1730;41.932;25.548;2023-07-13T00:50:33;99461.03;;;24.00;100.00
3434;BME280;1730;41.932;25.548;2023-07-13T00:52:59;99468.44;;;23.99;100.00
3434;BME280;1730;41.932;25.548;2023-07-13T00:55:24;99458.16;;;23.95;100.00
3434;BME280;1730;41.932;25.548;2023-07-13T00:57:50;99480.91;;;23.90;100.00
3434;BME280;1730;41.932;25.548;2023-07-13T01:00:16;99510.41;;;23.71;100.00
3434;BME280;1730;41.932;25.548;2023-07-13T01:02:45;99485.28;;;23.68;100.00
3434;BME280;1730;41.932;25.548;2023-07-13T01:05:13;99518.34;;;23.79;100.00
3434;BME280;1730;41.932;25.548;2023-07-13T01:07:39;99510.34;;;23.90;100.00
3434;BME280;1730;41.932;25.548;2023-07-13T01:10:07;99510.84;;;23.87;100.00
3434;BME280;1730;41.932;25.548;2023-07-13T01:12:32;99463.16;;;23.45;100.00
3434;BME280;1730;41.932;25.548;2023-07-13T01:14:59;99521.28;;;23.66;100.00
3434;BME280;1730;41.932;25.548;2023-07-13T01:17:26;99531.59;;;23.71;100.00
3434;BME280;1730;41.932;25.548;2023-07-13T01:19:52;99548.56;;;23.56;100.00
3434;BME280;1730;41.932;25.548;2023-07-13T01:22:18;99553.78;;;23.46;100.00
3434;BME280;1730;41.932;25.548;2023-07-13T01:24:46;99572.44;;;23.44;100.00
3434;BME280;1730;41.932;25.548;2023-07-13T01:27:14;99544.75;;;23.21;100.00
3434;BME280;1730;41.932;25.548;2023-07-13T01:29:43;99577.94;;;23.44;100.00
3434;BME280;1730;41.932;25.548;2023-07-13T01:32:12;99565.09;;;23.56;100.00
3434;BME280;1730;41.932;25.548;2023-07-13T01:34:38;99559.50;;;23.74;100.00
3434;BME280;1730;41.932;25.548;2023-07-13T01:37:09;99547.72;;;23.56;100.00
3434;BME280;1730;41.932;25.548;2023-07-13T01:39:35;99561.78;;;23.48;100.00
3434;BME280;1730;41.932;25.548;2023-07-13T01:42:01;99577.84;;;23.32;100.00
3434;BME280;1730;41.932;25.548;2023-07-13T01:44:27;99597.13;;;23.32;100.00
3434;BME280;1730;41.932;25.548;2023-07-13T01:46:52;99591.75;;;23.19;100.00
3434;BME280;1730;41.932;25.548;2023-07-13T01:49:18;99607.56;;;23.06;100.00
3434;BME280;1730;41.932;25.548;2023-07-13T01:51:43;99628.34;;;23.02;100.00
3434;BME280;1730;41.932;25.548;2023-07-13T01:54:09;99620.63;;;22.67;100.00
3434;BME280;1730;41.932;25.548;2023-07-13T01:56:34;99675.81;;;22.66;100.00
3434;BME280;1730;41.932;25.548;2023-07-13T01:59:00;99702.94;;;22.62;100.00
3434;BME280;1730;41.932;25.548;2023-07-13T02:01:25;99724.94;;;22.56;100.00
3434;BME280;1730;41.932;25.548;2023-07-13T02:03:51;99753.53;;;22.55;100.00
3434;BME280;1730;41.932;25.548;2023-07-13T02:06:16;99752.78;;;22.41;100.00
3434;BME280;1730;41.932;25.548;2023-07-13T02:08:42;99783.00;;;22.41;100.00
3434;BME280;1730;41.932;25.548;2023-07-13T02:11:08;99797.22;;;22.31;100.00
3434;BME280;1730;41.932;25.548;2023-07-13T02:13:33;99804.59;;;22.31;100.00
3434;BME280;1730;41.932;25.548;2023-07-13T02:15:59;99833.13;;;22.30;100.00
3434;BME280;1730;41.932;25.548;2023-07-13T02:18:25;99753.22;;;21.80;100.00
3434;BME280;1730;41.932;25.548;2023-07-13T02:20:51;99854.72;;;22.33;100.00
3434;BME280;1730;41.932;25.548;2023-07-13T02:23:16;99870.34;;;22.32;100.00
3434;BME280;1730;41.932;25.548;2023-07-13T02:25:42;99863.81;;;22.33;100.00
3434;BME280;1730;41.932;25.548;2023-07-13T02:28:07;99849.63;;;22.30;100.00
3434;BME280;1730;41.932;25.548;2023-07-13T02:30:34;99869.94;;;22.22;100.00
3434;BME280;1730;41.932;25.548;2023-07-13T02:33:00;99870.00;;;22.16;100.00
3434;BME280;1730;41.932;25.548;2023-07-13T02:35:25;99823.13;;;21.97;100.00
3434;BME280;1730;41.932;25.548;2023-07-13T02:37:51;99873.59;;;22.10;100.00
3434;BME280;1730;41.932;25.548;2023-07-13T02:40:16;99872.09;;;22.14;100.00
3434;BME280;1730;41.932;25.548;2023-07-13T02:42:42;99885.84;;;22.00;100.00
3434;BME280;1730;41.932;25.548;2023-07-13T02:45:08;99899.97;;;22.17;100.00
3434;BME280;1730;41.932;25.548;2023-07-13T02:47:34;99892.38;;;22.19;100.00
3434;BME280;1730;41.932;25.548;2023-07-13T02:50:00;99825.19;;;22.15;100.00
3434;BME280;1730;41.932;25.548;2023-07-13T02:52:26;99865.91;;;22.31;100.00
3434;BME280;1730;41.932;25.548;2023-07-13T02:54:52;99883.72;;;22.09;100.00
3434;BME280;1730;41.932;25.548;2023-07-13T02:57:17;99912.44;;;22.13;100.00
3434;BME280;1730;41.932;25.548;2023-07-13T02:59:43;99910.97;;;22.24;100.00
3434;BME280;1730;41.932;25.548;2023-07-13T03:02:08;99900.34;;;22.40;100.00
3434;BME280;1730;41.932;25.548;2023-07-13T03:04:36;99903.56;;;22.24;100.00
3434;BME280;1730;41.932;25.548;2023-07-13T03:07:03;99897.00;;;22.25;100.00
3434;BME280;1730;41.932;25.548;2023-07-13T03:09:28;99889.78;;;22.31;100.00
3434;BME280;1730;41.932;25.548;2023-07-13T03:11:54;99868.81;;;22.43;100.00
3434;BME280;1730;41.932;25.548;2023-07-13T03:14:21;99849.81;;;22.35;100.00
3434;BME280;1730;41.932;25.548;2023-07-13T03:16:47;99860.41;;;22.25;100.00
3434;BME280;1730;41.932;25.548;2023-07-13T03:19:12;99848.56;;;22.37;100.00
3434;BME280;1730;41.932;25.548;2023-07-13T03:21:38;99855.72;;;22.45;100.00
3434;BME280;1730;41.932;25.548;2023-07-13T03:24:04;99827.84;;;22.35;100.00
3434;BME280;1730;41.932;25.548;2023-07-13T03:26:29;99832.44;;;22.47;100.00
3434;BME280;1730;41.932;25.548;2023-07-13T03:28:54;99800.28;;;22.48;100.00
3434;BME280;1730;41.932;25.548;2023-07-13T03:31:27;99752.06;;;22.52;100.00
3434;BME280;1730;41.932;25.548;2023-07-13T03:33:55;99742.87;;;22.71;100.00
3434;BME280;1730;41.932;25.548;2023-07-13T03:36:26;99725.34;;;22.90;100.00
3434;BME280;1730;41.932;25.548;2023-07-13T03:38:54;99697.69;;;23.10;100.00
3434;BME280;1730;41.932;25.548;2023-07-13T03:41:21;99670.22;;;23.28;100.00
3434;BME280;1730;41.932;25.548;2023-07-13T03:43:47;99647.69;;;23.13;100.00
3434;BME280;1730;41.932;25.548;2023-07-13T03:46:14;99649.38;;;23.14;100.00
3434;BME280;1730;41.932;25.548;2023-07-13T03:48:41;99612.03;;;23.43;100.00
3434;BME280;1730;41.932;25.548;2023-07-13T03:51:09;99571.84;;;23.72;100.00
3434;BME280;1730;41.932;25.548;2023-07-13T03:53:39;99541.25;;;23.92;100.00
3434;BME280;1730;41.932;25.548;2023-07-13T03:56:06;99509.31;;;24.02;100.00
3434;BME280;1730;41.932;25.548;2023-07-13T03:58:37;99493.03;;;24.12;100.00
3434;BME280;1730;41.932;25.548;2023-07-13T04:01:04;99437.81;;;24.19;100.00
3434;BME280;1730;41.932;25.548;2023-07-13T04:03:31;99420.19;;;24.32;100.00
3434;BME280;1730;41.932;25.548;2023-07-13T04:05:59;99437.59;;;24.84;100.00
3434;BME280;1730;41.932;25.548;2023-07-13T04:08:27;99419.31;;;25.18;100.00
3434;BME280;1730;41.932;25.548;2023-07-13T04:10:54;99400.44;;;25.43;100.00
3434;BME280;1730;41.932;25.548;2023-07-13T04:13:19;99313.69;;;25.39;100.00
3434;BME280;1730;41.932;25.548;2023-07-13T04:15:45;99346.37;;;26.30;100.00
3434;BME280;1730;41.932;25.548;2023-07-13T04:18:10;99324.69;;;26.44;100.00
3434;BME280;1730;41.932;25.548;2023-07-13T04:20:36;99318.38;;;26.70;100.00
3434;BME280;1730;41.932;25.548;2023-07-13T04:23:02;99297.84;;;26.88;100.00
3434;BME280;1730;41.932;25.548;2023-07-13T04:25:27;99257.00;;;27.00;100.00
3434;BME280;1730;41.932;25.548;2023-07-13T04:27:53;99287.03;;;27.45;100.00
3434;BME280;1730;41.932;25.548;2023-07-13T04:30:20;99280.91;;;27.43;100.00
3434;BME280;1730;41.932;25.548;2023-07-13T04:32:46;99139.00;;;26.62;100.00
3434;BME280;1730;41.932;25.548;2023-07-13T04:35:11;99275.41;;;27.80;100.00
3434;BME280;1730;41.932;25.548;2023-07-13T04:37:37;99271.38;;;27.61;100.00
3434;BME280;1730;41.932;25.548;2023-07-13T04:40:03;99273.31;;;28.02;100.00
3434;BME280;1730;41.932;25.548;2023-07-13T04:42:29;99256.75;;;28.80;100.00
3434;BME280;1730;41.932;25.548;2023-07-13T04:44:55;99257.75;;;28.53;100.00
3434;BME280;1730;41.932;25.548;2023-07-13T04:47:21;99255.56;;;28.60;100.00
3434;BME280;1730;41.932;25.548;2023-07-13T04:49:46;99248.16;;;28.81;100.00
3434;BME280;1730;41.932;25.548;2023-07-13T04:52:12;99215.97;;;29.00;100.00
3434;BME280;1730;41.932;25.548;2023-07-13T04:54:38;99246.00;;;29.44;100.00
3434;BME280;1730;41.932;25.548;2023-07-13T04:57:04;99249.56;;;29.95;100.00
3434;BME280;1730;41.932;25.548;2023-07-13T04:59:33;99237.75;;;30.28;100.00
3434;BME280;1730;41.932;25.548;2023-07-13T05:01:59;99248.88;;;30.28;100.00
3434;BME280;1730;41.932;25.548;2023-07-13T05:04:25;99228.72;;;30.62;100.00
3434;BME280;1730;41.932;25.548;2023-07-13T05:06:50;99228.28;;;30.29;100.00
3434;BME280;1730;41.932;25.548;2023-07-13T05:09:17;99240.53;;;30.82;100.00
3434;BME280;1730;41.932;25.548;2023-07-13T05:11:43;99246.63;;;30.40;100.00
3434;BME280;1730;41.932;25.548;2023-07-13T05:14:10;99237.59;;;30.64;100.00
3434;BME280;1730;41.932;25.548;2023-07-13T05:16:37;99228.53;;;30.87;100.00
3434;BME280;1730;41.932;25.548;2023-07-13T05:19:04;99226.81;;;30.96;100.00
3434;BME280;1730;41.932;25.548;2023-07-13T05:21:30;99238.50;;;31.37;100.00
3434;BME280;1730;41.932;25.548;2023-07-13T05:23:56;99172.88;;;31.16;100.00
3434;BME280;1730;41.932;25.548;2023-07-13T05:26:21;99235.03;;;31.50;100.00
3434;BME280;1730;41.932;25.548;2023-07-13T05:28:47;99233.22;;;32.17;100.00
3434;BME280;1730;41.932;25.548;2023-07-13T05:31:13;99232.22;;;32.32;100.00
3434;BME280;1730;41.932;25.548;2023-07-13T05:33:39;99240.47;;;32.42;100.00
3434;BME280;1730;41.932;25.548;2023-07-13T05:36:05;99238.44;;;32.00;100.00
3434;BME280;1730;41.932;25.548;2023-07-13T05:38:32;99140.16;;;32.45;100.00
3434;BME280;1730;41.932;25.548;2023-07-13T05:40:58;99232.97;;;32.98;100.00
3434;BME280;1730;41.932;25.548;2023-07-13T05:43:24;99216.13;;;33.22;100.00
3434;BME280;1730;41.932;25.548;2023-07-13T05:45:52;99223.78;;;33.17;100.00
3434;BME280;1730;41.932;25.548;2023-07-13T05:48:18;99228.47;;;33.21;100.00
3434;BME280;1730;41.932;25.548;2023-07-13T05:50:44;99220.62;;;33.37;100.00
3434;BME280;1730;41.932;25.548;2023-07-13T05:53:09;99235.47;;;33.19;100.00
3434;BME280;1730;41.932;25.548;2023-07-13T05:55:35;99235.12;;;33.71;100.00
3434;BME280;1730;41.932;25.548;2023-07-13T05:58:01;99229.56;;;33.52;100.00
3434;BME280;1730;41.932;25.548;2023-07-13T06:00:27;99231.59;;;32.96;100.00
3434;BME280;1730;41.932;25.548;2023-07-13T06:02:52;99232.38;;;33.01;100.00
3434;BME280;1730;41.932;25.548;2023-07-13T06:05:18;99226.78;;;33.52;96.75
3434;BME280;1730;41.932;25.548;2023-07-13T06:07:44;99211.62;;;33.72;100.00
3434;BME280;1730;41.932;25.548;2023-07-13T06:10:09;99223.28;;;34.34;97.03
3434;BME280;1730;41.932;25.548;2023-07-13T06:12:35;99167.66;;;34.41;93.06
3434;BME280;1730;41.932;25.548;2023-07-13T06:15:01;99170.00;;;34.61;100.00
3434;BME280;1730;41.932;25.548;2023-07-13T06:17:26;99225.97;;;34.66;100.00
3434;BME280;1730;41.932;25.548;2023-07-13T06:19:52;99224.09;;;34.48;100.00
3434;BME280;1730;41.932;25.548;2023-07-13T06:22:17;99237.47;;;34.78;100.00
3434;BME280;1730;41.932;25.548;2023-07-13T06:24:43;99169.44;;;34.87;100.00
3434;BME280;1730;41.932;25.548;2023-07-13T06:27:09;99234.72;;;35.45;100.00
3434;BME280;1730;41.932;25.548;2023-07-13T06:29:34;99237.78;;;35.35;100.00
3434;BME280;1730;41.932;25.548;2023-07-13T06:32:02;99230.13;;;36.02;91.98
3434;BME280;1730;41.932;25.548;2023-07-13T06:34:28;99226.47;;;36.33;87.11
3434;BME280;1730;41.932;25.548;2023-07-13T06:36:55;99226.31;;;36.38;85.41
3434;BME280;1730;41.932;25.548;2023-07-13T06:39:21;99225.75;;;36.19;90.65
3434;BME280;1730;41.932;25.548;2023-07-13T06:41:46;99186.88;;;36.86;84.50
3434;BME280;1730;41.932;25.548;2023-07-13T06:44:12;99206.25;;;37.13;79.41
3434;BME280;1730;41.932;25.548;2023-07-13T06:46:37;99202.78;;;37.25;80.46
3434;BME280;1730;41.932;25.548;2023-07-13T06:49:03;99220.53;;;36.03;90.19
3434;BME280;1730;41.932;25.548;2023-07-13T06:51:28;99216.56;;;36.44;87.92
3434;BME280;1730;41.932;25.548;2023-07-13T06:53:54;99204.56;;;36.95;84.39
3434;BME280;1730;41.932;25.548;2023-07-13T06:56:21;99217.13;;;37.40;80.93
3434;BME280;1730;41.932;25.548;2023-07-13T06:58:47;99215.44;;;37.74;75.11
3434;BME280;1730;41.932;25.548;2023-07-13T07:01:14;99172.25;;;37.61;72.66
3434;BME280;1730;41.932;25.548;2023-07-13T07:03:40;99209.56;;;37.87;70.08
3434;BME280;1730;41.932;25.548;2023-07-13T07:06:20;99207.00;;;37.74;68.98
3434;BME280;1730;41.932;25.548;2023-07-13T07:08:46;99207.53;;;37.50;69.67
3434;BME280;1730;41.932;25.548;2023-07-13T07:11:14;99129.97;;;37.06;71.00
3434;BME280;1730;41.932;25.548;2023-07-13T07:13:40;99205.59;;;36.99;72.91
3434;BME280;1730;41.932;25.548;2023-07-13T07:16:06;99200.75;;;37.51;72.08
3434;BME280;1730;41.932;25.548;2023-07-13T07:18:32;99183.44;;;37.78;65.58
3434;BME280;1730;41.932;25.548;2023-07-13T07:20:57;99213.94;;;37.76;69.42
3434;BME280;1730;41.932;25.548;2023-07-13T07:23:23;99130.44;;;37.25;69.23
3434;BME280;1730;41.932;25.548;2023-07-13T07:25:48;99205.84;;;38.21;66.03
3434;BME280;1730;41.932;25.548;2023-07-13T07:28:16;99205.91;;;38.42;64.18
3434;BME280;1730;41.932;25.548;2023-07-13T07:30:45;99207.31;;;38.19;65.02
3434;BME280;1730;41.932;25.548;2023-07-13T07:33:12;99179.88;;;37.52;67.57
3434;BME280;1730;41.932;25.548;2023-07-13T07:35:37;99192.37;;;37.17;67.46
3434;BME280;1730;41.932;25.548;2023-07-13T07:38:03;99191.53;;;37.25;68.85
3434;BME280;1730;41.932;25.548;2023-07-13T07:40:29;99201.94;;;36.81;72.59
3434;BME280;1730;41.932;25.548;2023-07-13T07:42:55;99199.75;;;36.78;73.74
3434;BME280;1730;41.932;25.548;2023-07-13T07:45:20;99205.75;;;37.02;70.15
3434;BME280;1730;41.932;25.548;2023-07-13T07:47:46;99206.22;;;36.87;73.24
3434;BME280;1730;41.932;25.548;2023-07-13T07:50:11;99203.25;;;37.01;70.34
3434;BME280;1730;41.932;25.548;2023-07-13T07:52:37;99212.53;;;37.10;72.98
3434;BME280;1730;41.932;25.548;2023-07-13T07:55:04;99199.44;;;36.71;73.83
3434;BME280;1730;41.932;25.548;2023-07-13T07:57:30;99196.78;;;36.92;71.27
3434;BME280;1730;41.932;25.548;2023-07-13T07:59:56;99113.56;;;36.48;71.13
3434;BME280;1730;41.932;25.548;2023-07-13T08:02:21;99195.50;;;37.07;68.18
3434;BME280;1730;41.932;25.548;2023-07-13T08:04:47;99200.94;;;36.86;69.82
3434;BME280;1730;41.932;25.548;2023-07-13T08:07:12;99201.75;;;36.86;70.37
3434;BME280;1730;41.932;25.548;2023-07-13T08:09:38;99186.97;;;36.38;72.60
3434;BME280;1730;41.932;25.548;2023-07-13T08:12:04;99199.44;;;36.71;71.67
3434;BME280;1730;41.932;25.548;2023-07-13T08:14:30;99169.19;;;36.68;71.82
3434;BME280;1730;41.932;25.548;2023-07-13T08:16:55;99198.47;;;36.76;72.95
3434;BME280;1730;41.932;25.548;2023-07-13T08:19:21;99194.66;;;36.72;72.10
3434;BME280;1730;41.932;25.548;2023-07-13T08:21:48;99194.56;;;36.29;72.48
3434;BME280;1730;41.932;25.548;2023-07-13T08:24:14;99174.66;;;36.17;71.43
3434;BME280;1730;41.932;25.548;2023-07-13T08:26:39;99188.13;;;36.37;71.12
3434;BME280;1730;41.932;25.548;2023-07-13T08:29:05;99185.00;;;36.55;69.94
3434;BME280;1730;41.932;25.548;2023-07-13T08:31:30;99125.66;;;35.83;75.97
3434;BME280;1730;41.932;25.548;2023-07-13T08:33:56;99192.78;;;36.58;76.98
3434;BME280;1730;41.932;25.548;2023-07-13T08:36:21;99181.06;;;36.65;74.79
3434;BME280;1730;41.932;25.548;2023-07-13T08:38:48;99118.75;;;35.89;79.59
3434;BME280;1730;41.932;25.548;2023-07-13T08:41:16;99148.16;;;36.00;81.97
3434;BME280;1730;41.932;25.548;2023-07-13T08:43:46;99183.31;;;36.29;79.72
3434;BME280;1730;41.932;25.548;2023-07-13T08:46:23;99190.84;;;35.72;86.27
3434;BME280;1730;41.932;25.548;2023-07-13T08:48:58;99186.31;;;35.93;86.00
3434;BME280;1730;41.932;25.548;2023-07-13T08:54:04;99191.25;;;35.96;82.85
3434;BME280;1730;41.932;25.548;2023-07-13T08:56:31;99200.94;;;35.81;87.00
3434;BME280;1730;41.932;25.548;2023-07-13T08:59:01;99183.19;;;36.03;87.10
3434;BME280;1730;41.932;25.548;2023-07-13T09:04:19;99187.13;;;36.33;85.29
3434;BME280;1730;41.932;25.548;2023-07-13T09:14:48;99193.09;;;36.00;82.38
3434;BME280;1730;41.932;25.548;2023-07-13T09:17:26;99175.22;;;35.88;77.90
3434;BME280;1730;41.932;25.548;2023-07-13T09:20:02;99170.72;;;35.78;74.05
3434;BME280;1730;41.932;25.548;2023-07-13T09:22:32;99136.59;;;35.62;75.92
3434;BME280;1730;41.932;25.548;2023-07-13T09:25:24;99173.22;;;36.28;71.95
3434;BME280;1730;41.932;25.548;2023-07-13T09:27:53;99167.41;;;35.76;69.25
3434;BME280;1730;41.932;25.548;2023-07-13T09:30:32;99162.84;;;35.89;75.23
3434;BME280;1730;41.932;25.548;2023-07-13T09:32:59;99160.84;;;36.29;71.35
3434;BME280;1730;41.932;25.548;2023-07-13T09:35:26;99162.59;;;36.16;69.60
3434;BME280;1730;41.932;25.548;2023-07-13T09:38:10;99159.50;;;36.35;69.37
3434;BME280;1730;41.932;25.548;2023-07-13T09:40:46;99146.84;;;36.72;68.61
3434;BME280;1730;41.932;25.548;2023-07-13T09:43:15;99152.31;;;36.68;64.55
3434;BME280;1730;41.932;25.548;2023-07-13T09:45:45;99144.00;;;36.54;67.02
3434;BME280;1730;41.932;25.548;2023-07-13T09:48:14;99138.22;;;36.51;65.28
3434;BME280;1730;41.932;25.548;2023-07-13T09:50:40;99133.50;;;36.12;68.97
3434;BME280;1730;41.932;25.548;2023-07-13T09:53:15;99122.84;;;36.83;66.49
3434;BME280;1730;41.932;25.548;2023-07-13T09:55:45;99132.22;;;37.38;66.69
3434;BME280;1730;41.932;25.548;2023-07-13T09:58:18;99129.50;;;37.68;60.95
3434;BME280;1730;41.932;25.548;2023-07-13T10:00:57;99124.78;;;37.42;60.18
3434;BME280;1730;41.932;25.548;2023-07-13T10:03:32;99093.72;;;36.96;60.30
3434;BME280;1730;41.932;25.548;2023-07-13T10:06:16;99116.28;;;37.51;58.28
3434;BME280;1730;41.932;25.548;2023-07-13T10:08:44;99087.69;;;37.40;53.46
3434;BME280;1730;41.932;25.548;2023-07-13T10:11:19;99091.19;;;37.37;55.33
3434;BME280;1730;41.932;25.548;2023-07-13T10:13:51;99109.37;;;37.86;54.80
3434;BME280;1730;41.932;25.548;2023-07-13T10:16:18;99100.09;;;37.86;52.97
3434;BME280;1730;41.932;25.548;2023-07-13T10:18:51;99092.25;;;37.62;53.70
3434;BME280;1730;41.932;25.548;2023-07-13T10:21:20;99104.94;;;37.77;53.42
3434;BME280;1730;41.932;25.548;2023-07-13T10:23:55;99084.19;;;37.43;52.79
3434;BME280;1730;41.932;25.548;2023-07-13T10:26:29;99080.75;;;37.38;52.43
3434;BME280;1730;41.932;25.548;2023-07-13T10:29:00;99080.13;;;37.24;52.39
3434;BME280;1730;41.932;25.548;2023-07-13T10:31:27;99077.00;;;37.25;51.87
3434;BME280;1730;41.932;25.548;2023-07-13T10:33:53;99072.34;;;37.67;51.13
3434;BME280;1730;41.932;25.548;2023-07-13T10:36:34;99068.47;;;37.80;50.23
3434;BME280;1730;41.932;25.548;2023-07-13T10:39:05;99064.97;;;37.83;49.53
3434;BME280;1730;41.932;25.548;2023-07-13T10:41:37;99055.63;;;38.00;49.14
3434;BME280;1730;41.932;25.548;2023-07-13T10:44:04;99067.59;;;38.18;48.75
3434;BME280;1730;41.932;25.548;2023-07-13T10:46:37;99063.97;;;38.59;48.75
3434;BME280;1730;41.932;25.548;2023-07-13T10:49:05;99058.47;;;38.42;49.96
3434;BME280;1730;41.932;25.548;2023-07-13T10:51:33;99052.00;;;38.41;48.03
3434;BME280;1730;41.932;25.548;2023-07-13T10:54:20;99018.94;;;37.79;48.00
3434;BME280;1730;41.932;25.548;2023-07-13T10:56:51;99053.59;;;38.30;48.85
3434;BME280;1730;41.932;25.548;2023-07-13T10:59:23;99056.09;;;38.52;46.95
3434;BME280;1730;41.932;25.548;2023-07-13T11:02:12;99048.09;;;38.33;45.36
3434;BME280;1730;41.932;25.548;2023-07-13T11:04:42;99048.91;;;38.13;46.25
3434;BME280;1730;41.932;25.548;2023-07-13T11:09:49;99052.16;;;38.45;46.34
3434;BME280;1730;41.932;25.548;2023-07-13T11:17:47;99047.63;;;38.52;44.63
3434;BME280;1730;41.932;25.548;2023-07-13T11:22:51;99041.16;;;38.85;45.72
3434;BME280;1730;41.932;25.548;2023-07-13T11:25:24;98996.50;;;38.54;44.86
3434;BME280;1730;41.932;25.548;2023-07-13T11:35:35;99035.72;;;38.47;44.78
3434;BME280;1730;41.932;25.548;2023-07-13T11:38:14;99027.88;;;38.85;45.18
3434;BME280;1730;41.932;25.548;2023-07-13T11:40:43;99027.84;;;39.06;45.02
3434;BME280;1730;41.932;25.548;2023-07-13T11:43:13;99027.13;;;38.76;44.10
3434;BME280;1730;41.932;25.548;2023-07-13T11:45:39;99021.06;;;38.32;45.38
3434;BME280;1730;41.932;25.548;2023-07-13T11:48:04;98985.84;;;38.59;45.65
3434;BME280;1730;41.932;25.548;2023-07-13T11:50:30;99027.09;;;38.64;42.72
3434;BME280;1730;41.932;25.548;2023-07-13T11:52:58;99018.13;;;38.29;43.62
3434;BME280;1730;41.932;25.548;2023-07-13T11:55:24;99020.19;;;38.61;45.04
3434;BME280;1730;41.932;25.548;2023-07-13T11:57:57;99018.28;;;38.86;44.10
3434;BME280;1730;41.932;25.548;2023-07-13T12:00:28;99025.41;;;39.16;43.13
3434;BME280;1730;41.932;25.548;2023-07-13T12:02:57;99017.34;;;38.41;44.02
3434;BME280;1730;41.932;25.548;2023-07-13T12:05:24;99012.69;;;38.77;43.66
3434;BME280;1730;41.932;25.548;2023-07-13T12:07:50;99009.53;;;39.24;43.33
3434;BME280;1730;41.932;25.548;2023-07-13T12:10:26;98805.06;;;38.04;43.05
3434;BME280;1730;41.932;25.548;2023-07-13T12:12:55;99007.41;;;39.21;44.98
3434;BME280;1730;41.932;25.548;2023-07-13T12:15:23;99012.53;;;39.40;44.09
3434;BME280;1730;41.932;25.548;2023-07-13T12:17:49;99004.69;;;38.79;43.90
3434;BME280;1730;41.932;25.548;2023-07-13T12:20:25;98970.81;;;38.55;43.66
3434;BME280;1730;41.932;25.548;2023-07-13T12:22:52;98991.75;;;39.11;42.93
3434;BME280;1730;41.932;25.548;2023-07-13T12:25:18;98987.78;;;39.37;43.50
3434;BME280;1730;41.932;25.548;2023-07-13T12:27:49;98929.88;;;38.82;43.78
3434;BME280;1730;41.932;25.548;2023-07-13T12:30:28;98985.06;;;39.04;43.66
3434;BME280;1730;41.932;25.548;2023-07-13T12:33:08;98996.44;;;38.95;43.63
3434;BME280;1730;41.932;25.548;2023-07-13T12:35:47;98930.47;;;38.43;43.83
3434;BME280;1730;41.932;25.548;2023-07-13T12:38:13;98984.03;;;39.33;43.20
3434;BME280;1730;41.932;25.548;2023-07-13T12:40:40;98971.81;;;39.53;42.21
3434;BME280;1730;41.932;25.548;2023-07-13T12:43:11;98873.25;;;38.99;41.63
3434;BME280;1730;41.932;25.548;2023-07-13T12:45:37;98975.69;;;39.48;42.61
3434;BME280;1730;41.932;25.548;2023-07-13T12:48:10;98988.81;;;39.20;42.54
3434;BME280;1730;41.932;25.548;2023-07-13T12:50:41;98969.56;;;38.77;42.65
3434;BME280;1730;41.932;25.548;2023-07-13T12:53:13;98802.47;;;37.57;43.06
3434;BME280;1730;41.932;25.548;2023-07-13T12:56:00;98962.00;;;38.57;43.47
3434;BME280;1730;41.932;25.548;2023-07-13T12:58:39;98978.97;;;38.69;43.43
3434;BME280;1730;41.932;25.548;2023-07-13T13:01:07;98885.03;;;38.23;43.49
3434;BME280;1730;41.932;25.548;2023-07-13T13:03:36;98958.25;;;38.53;42.64
3434;BME280;1730;41.932;25.548;2023-07-13T13:06:18;98959.91;;;38.66;43.12
3434;BME280;1730;41.932;25.548;2023-07-13T13:08:46;98863.84;;;38.05;42.92
3434;BME280;1730;41.932;25.548;2023-07-13T13:11:18;98940.72;;;39.04;43.64
3434;BME280;1730;41.932;25.548;2023-07-13T13:13:45;98930.53;;;39.36;42.78
3434;BME280;1730;41.932;25.548;2023-07-13T13:16:17;98944.13;;;39.58;42.31
3434;BME280;1730;41.932;25.548;2023-07-13T13:18:44;98940.94;;;39.23;41.37
3434;BME280;1730;41.932;25.548;2023-07-13T13:21:10;98836.00;;;38.37;42.01
3434;BME280;1730;41.932;25.548;2023-07-13T13:23:36;98937.31;;;38.87;42.46
3434;BME280;1730;41.932;25.548;2023-07-13T13:26:05;98931.34;;;39.37;43.26
3434;BME280;1730;41.932;25.548;2023-07-13T13:28:31;98942.53;;;39.33;42.90
3434;BME280;1730;41.932;25.548;2023-07-13T13:30:57;98920.22;;;39.68;42.54
3434;BME280;1730;41.932;25.548;2023-07-13T13:33:23;98940.59;;;39.86;42.69
3434;BME280;1730;41.932;25.548;2023-07-13T13:35:48;98931.63;;;39.96;41.49
3434;BME280;1730;41.932;25.548;2023-07-13T13:38:18;98855.97;;;39.01;42.20
3434;BME280;1730;41.932;25.548;2023-07-13T13:40:45;98924.75;;;39.57;41.75
3434;BME280;1730;41.932;25.548;2023-07-13T13:43:15;98916.75;;;39.47;41.71